createdAt,value
2022-12-13T00:01:30.593Z,0.28
2022-12-13T00:04:00.261Z,0.35
2022-12-13T00:06:28.916Z,0.42
2022-12-13T00:08:56.727Z,0.53
2022-12-13T00:11:24.484Z,0.49
2022-12-13T00:13:53.984Z,0.26
2022-12-13T00:16:23.751Z,0.25
2022-12-13T00:18:53.997Z,-0.11
2022-12-13T00:21:23.171Z,0.24
2022-12-13T00:23:51.114Z,0.10
2022-12-13T00:26:20.814Z,0.15
2022-12-13T00:28:51.101Z,0.28
2022-12-13T00:34:09.927Z,0.22
2022-12-13T00:36:37.732Z,0.29
2022-12-13T00:39:05.729Z,0.22
2022-12-13T00:41:35.789Z,0.31
2022-12-13T00:44:05.576Z,0.44
2022-12-13T00:46:34.697Z,0.27
2022-12-13T00:49:02.841Z,0.25
2022-12-13T00:51:33.263Z,0.25
2022-12-13T00:54:02.003Z,0.18
2022-12-13T00:56:31.847Z,0.11
2022-12-13T00:59:00.536Z,0.36
2022-12-13T01:01:30.090Z,0.28
2022-12-13T01:04:01.997Z,0.40
2022-12-13T01:06:34.008Z,0.46
2022-12-13T01:09:02.257Z,0.48
2022-12-13T01:11:30.339Z,0.64
2022-12-13T01:13:58.168Z,0.42
2022-12-13T01:16:26.007Z,0.32
2022-12-13T01:18:53.940Z,0.40
2022-12-13T01:21:23.084Z,0.18
2022-12-13T01:23:51.222Z,0.14
2022-12-13T01:26:21.505Z,-0.05
2022-12-13T01:28:49.729Z,-0.06
2022-12-13T01:31:20.891Z,-0.22
2022-12-13T01:33:49.342Z,0.02
2022-12-13T01:36:20.006Z,0.01
2022-12-13T01:38:58.132Z,0.14
2022-12-13T01:41:27.747Z,-0.13
2022-12-13T01:44:00.934Z,0.17
2022-12-13T01:46:29.035Z,0.24
2022-12-13T01:49:02.820Z,0.18
2022-12-13T01:51:35.509Z,0.31
2022-12-13T01:54:07.578Z,0.25
2022-12-13T01:56:40.028Z,0.52
2022-12-13T01:59:10.163Z,0.46
2022-12-13T02:01:39.321Z,0.33
2022-12-13T02:04:08.151Z,0.36
2022-12-13T02:06:37.988Z,0.43
2022-12-13T02:09:09.082Z,0.13
2022-12-13T02:11:39.253Z,0.16
2022-12-13T02:14:07.089Z,0.10
2022-12-13T02:16:45.899Z,0.16
2022-12-13T02:19:50.824Z,0.10
2022-12-13T02:22:41.491Z,0.08
2022-12-13T02:25:29.447Z,0.06
2022-12-13T02:28:31.757Z,0.16
2022-12-13T02:31:09.242Z,0.40
2022-12-13T02:33:46.236Z,0.38
2022-12-13T02:36:22.292Z,0.51
2022-12-13T02:38:57.604Z,0.76
2022-12-13T02:41:34.479Z,0.87
2022-12-13T02:44:22.445Z,1.02
2022-12-13T02:46:56.660Z,0.70
2022-12-13T02:49:25.695Z,0.80
2022-12-13T02:51:54.737Z,0.72
2022-12-13T02:54:22.531Z,0.79
2022-12-13T02:56:56.635Z,0.85
2022-12-13T02:59:29.126Z,0.86
2022-12-13T03:02:11.132Z,0.70
2022-12-13T03:05:07.257Z,0.79
2022-12-13T03:07:43.675Z,0.64
2022-12-13T03:10:20.217Z,0.66
2022-12-13T03:13:12.985Z,0.63
2022-12-13T03:15:46.337Z,0.71
2022-12-13T03:18:19.052Z,0.84
2022-12-13T03:20:48.752Z,0.67
2022-12-13T03:23:18.370Z,0.49
2022-12-13T03:25:48.470Z,0.60
2022-12-13T03:28:16.479Z,0.52
2022-12-13T03:30:44.441Z,0.26
2022-12-13T03:33:12.249Z,0.40
2022-12-13T03:35:45.393Z,0.27
2022-12-13T03:38:21.601Z,0.26
2022-12-13T03:40:53.854Z,0.46
2022-12-13T03:43:22.943Z,0.41
2022-12-13T03:45:52.154Z,0.38
2022-12-13T03:48:22.790Z,0.67
2022-12-13T03:50:53.663Z,0.75
2022-12-13T03:53:32.138Z,0.80
2022-12-13T03:56:02.056Z,0.66
2022-12-13T03:58:36.429Z,0.59
2022-12-13T04:01:06.961Z,0.67
2022-12-13T04:03:34.971Z,0.82
2022-12-13T04:06:05.002Z,0.56
2022-12-13T04:08:32.786Z,0.58
2022-12-13T04:11:20.659Z,0.67
2022-12-13T04:13:47.439Z,0.65
2022-12-13T04:16:15.492Z,0.74
2022-12-13T04:18:43.445Z,0.58
2022-12-13T04:21:12.629Z,0.56
2022-12-13T04:23:40.417Z,0.60
2022-12-13T04:26:08.160Z,0.78
2022-12-13T04:28:36.033Z,0.90
2022-12-13T04:31:03.859Z,0.95
2022-12-13T04:33:32.812Z,1.00
2022-12-13T04:36:01.011Z,0.94
2022-12-13T04:38:30.224Z,1.00
2022-12-13T04:41:06.965Z,0.86
2022-12-13T04:43:34.799Z,1.10
2022-12-13T04:46:02.760Z,1.20
2022-12-13T04:48:32.415Z,1.25
2022-12-13T04:51:01.112Z,1.26
2022-12-13T04:53:31.520Z,1.11
2022-12-13T04:55:59.364Z,0.99
2022-12-13T04:58:27.196Z,0.83
2022-12-13T05:00:55.065Z,1.04
2022-12-13T05:03:23.365Z,0.94
2022-12-13T05:05:51.429Z,1.22
2022-12-13T05:08:19.315Z,1.29
2022-12-13T05:10:48.553Z,1.23
2022-12-13T05:13:16.421Z,1.20
2022-12-13T05:15:44.131Z,1.33
2022-12-13T05:18:12.036Z,1.43
2022-12-13T05:20:40.315Z,1.44
2022-12-13T05:23:08.367Z,1.59
2022-12-13T05:25:36.853Z,1.46
2022-12-13T05:28:08.973Z,1.31
2022-12-13T05:30:55.034Z,1.47
2022-12-13T05:33:22.991Z,1.32
2022-12-13T05:35:52.950Z,1.03
2022-12-13T05:38:24.128Z,1.01
2022-12-13T05:40:52.229Z,1.10
2022-12-13T05:43:22.196Z,0.98
2022-12-13T05:45:50.521Z,1.05
2022-12-13T05:48:24.923Z,1.11
2022-12-13T05:51:11.037Z,1.26
2022-12-13T05:53:40.344Z,1.36
2022-12-13T05:56:08.573Z,1.47
2022-12-13T05:58:38.329Z,1.27
2022-12-13T06:01:07.989Z,1.15
2022-12-13T06:03:36.063Z,1.03
2022-12-13T06:06:04.233Z,0.87
2022-12-13T06:08:32.371Z,0.83
2022-12-13T06:11:10.917Z,0.88
2022-12-13T06:13:43.267Z,0.63
2022-12-13T06:16:22.739Z,0.53
2022-12-13T06:18:57.488Z,0.56
2022-12-13T06:21:40.772Z,0.46
2022-12-13T06:24:14.533Z,0.33
2022-12-13T06:26:42.448Z,0.10
2022-12-13T06:29:24.245Z,0.15
2022-12-13T06:31:54.801Z,0.11
2022-12-13T06:34:29.735Z,0.14
2022-12-13T06:36:57.600Z,0.14
2022-12-13T06:39:25.876Z,0.25
2022-12-13T06:42:01.467Z,-0.08
2022-12-13T06:44:30.687Z,0.12
2022-12-13T06:47:11.473Z,0.09
2022-12-13T06:49:42.695Z,-0.10
2022-12-13T06:52:11.981Z,-0.02
2022-12-13T06:54:40.019Z,-0.06
2022-12-13T06:57:08.200Z,0.31
2022-12-13T06:59:37.410Z,0.14
2022-12-13T07:02:05.335Z,0.19
2022-12-13T07:04:33.915Z,0.27
2022-12-13T07:07:02.740Z,0.44
2022-12-13T07:09:31.358Z,0.62
2022-12-13T07:11:59.287Z,0.72
2022-12-13T07:14:27.507Z,0.61
2022-12-13T07:17:03.062Z,0.74
2022-12-13T07:19:35.317Z,0.49
2022-12-13T07:22:05.561Z,0.40
2022-12-13T07:24:33.553Z,0.37
2022-12-13T07:27:01.287Z,0.46
2022-12-13T07:29:29.067Z,0.46
2022-12-13T07:32:01.381Z,0.68
2022-12-13T07:34:30.512Z,0.74
2022-12-13T07:36:58.496Z,0.74
2022-12-13T07:39:27.013Z,0.76
2022-12-13T07:41:55.988Z,0.71
2022-12-13T07:44:23.829Z,0.74
2022-12-13T07:46:51.673Z,0.82
2022-12-13T07:49:20.900Z,0.72
2022-12-13T07:51:49.109Z,0.77
2022-12-13T07:54:16.949Z,0.60
2022-12-13T07:56:45.917Z,0.63
2022-12-13T07:59:14.342Z,0.57
2022-12-13T08:01:42.465Z,0.34
2022-12-13T08:04:10.375Z,0.48
2022-12-13T08:06:40.445Z,0.71
2022-12-13T08:09:08.243Z,1.02
2022-12-13T08:11:36.029Z,1.06
2022-12-13T08:14:04.311Z,0.78
2022-12-13T08:16:32.101Z,0.66
2022-12-13T08:19:02.192Z,0.78
2022-12-13T08:24:24.807Z,0.97
2022-12-13T08:26:52.620Z,0.90
2022-12-13T08:29:23.362Z,1.08
2022-12-13T08:32:02.438Z,1.14
2022-12-13T08:34:31.622Z,1.17
2022-12-13T08:37:01.701Z,1.30
2022-12-13T08:39:34.431Z,1.55
2022-12-13T08:42:15.022Z,1.68
2022-12-13T08:44:45.370Z,1.71
2022-12-13T08:47:13.417Z,1.78
2022-12-13T08:49:53.339Z,1.75
2022-12-13T08:52:22.479Z,1.73
2022-12-13T08:54:51.884Z,1.78
2022-12-13T08:57:19.718Z,1.75
2022-12-13T08:59:47.463Z,1.75
2022-12-13T09:02:16.269Z,1.82
2022-12-13T09:04:44.810Z,1.57
2022-12-13T09:07:12.560Z,1.62
2022-12-13T09:09:40.415Z,1.49
2022-12-13T09:12:10.218Z,1.25
2022-12-13T09:14:45.571Z,0.86
2022-12-13T09:17:24.475Z,1.06
2022-12-13T09:19:58.521Z,1.25
2022-12-13T09:22:32.846Z,1.38
2022-12-13T09:25:02.348Z,1.46
2022-12-13T09:27:39.847Z,1.42
2022-12-13T09:30:13.080Z,1.15
2022-12-13T09:32:42.125Z,1.00
2022-12-13T09:35:10.839Z,1.09
2022-12-13T09:37:45.548Z,0.73
2022-12-13T09:40:25.258Z,1.07
2022-12-13T09:43:12.254Z,1.37
2022-12-13T09:45:44.888Z,1.26
2022-12-13T09:48:22.445Z,1.25
2022-12-13T09:50:58.553Z,1.03
2022-12-13T09:53:41.800Z,1.07
2022-12-13T09:56:13.021Z,1.19
2022-12-13T09:58:43.781Z,0.93
2022-12-13T10:01:13.982Z,1.04
2022-12-13T10:03:53.202Z,0.82
2022-12-13T10:06:23.825Z,1.17
2022-12-13T10:08:58.410Z,1.27
2022-12-13T10:11:31.432Z,1.13
2022-12-13T10:14:03.993Z,1.43
2022-12-13T10:16:43.750Z,1.37
2022-12-13T10:19:29.520Z,1.31
2022-12-13T10:22:02.158Z,1.28
2022-12-13T10:24:48.304Z,1.66
2022-12-13T10:27:18.914Z,1.78
2022-12-13T10:30:05.868Z,1.86
2022-12-13T10:32:43.246Z,1.89
2022-12-13T10:35:23.730Z,1.50
2022-12-13T10:37:51.901Z,1.26
2022-12-13T10:40:33.881Z,1.65
2022-12-13T10:43:22.102Z,1.73
2022-12-13T10:46:01.027Z,1.66
2022-12-13T10:48:38.677Z,1.67
2022-12-13T10:51:10.273Z,1.74
2022-12-13T10:53:46.914Z,2.12
2022-12-13T10:56:22.968Z,2.19
2022-12-13T10:59:15.135Z,2.03
2022-12-13T11:01:46.984Z,2.24
2022-12-13T11:04:27.859Z,2.25
2022-12-13T11:06:56.704Z,2.51
2022-12-13T11:09:38.752Z,2.34
2022-12-13T11:12:16.518Z,2.31
2022-12-13T11:14:54.212Z,2.01
2022-12-13T11:17:26.872Z,2.09
2022-12-13T11:19:57.489Z,2.49
2022-12-13T11:22:28.050Z,2.24
2022-12-13T11:25:01.189Z,2.24
2022-12-13T11:27:47.137Z,2.64
2022-12-13T11:30:22.772Z,2.73
2022-12-13T11:33:07.501Z,2.75
2022-12-13T11:35:50.043Z,2.97
2022-12-13T11:38:27.032Z,2.88
2022-12-13T11:41:00.248Z,2.98
2022-12-13T11:43:33.926Z,2.89
2022-12-13T11:46:06.145Z,2.98
2022-12-13T11:48:42.234Z,2.92
2022-12-13T11:51:14.157Z,2.95
2022-12-13T11:53:52.149Z,3.00
2022-12-13T11:56:25.917Z,3.41
2022-12-13T11:59:11.278Z,3.74
2022-12-13T12:01:51.915Z,3.71
2022-12-13T12:04:32.294Z,3.25
2022-12-13T12:07:31.353Z,3.06
2022-12-13T12:10:04.276Z,3.07
2022-12-13T12:12:34.726Z,3.35
2022-12-13T12:15:16.112Z,3.76
2022-12-13T12:17:44.905Z,3.50
2022-12-13T12:20:23.255Z,4.00
2022-12-13T12:23:02.416Z,3.95
2022-12-13T12:25:45.355Z,3.35
2022-12-13T12:28:26.654Z,3.83
2022-12-13T12:31:01.798Z,3.84
2022-12-13T12:33:37.460Z,4.12
2022-12-13T12:36:26.797Z,3.97
2022-12-13T12:39:15.184Z,4.17
2022-12-13T12:41:54.125Z,4.13
2022-12-13T12:44:37.335Z,4.29
2022-12-13T12:50:29.562Z,4.16
2022-12-13T12:53:12.569Z,4.09
2022-12-13T12:55:53.719Z,4.13
2022-12-13T12:58:31.457Z,4.07
2022-12-13T13:01:17.514Z,4.32
2022-12-13T13:03:46.396Z,4.51
2022-12-13T13:06:19.509Z,4.92
2022-12-13T13:08:56.421Z,4.68
2022-12-13T13:11:26.253Z,4.98
2022-12-13T13:14:08.208Z,4.77
2022-12-13T13:16:39.009Z,4.41
2022-12-13T13:19:07.264Z,4.70
2022-12-13T13:21:43.876Z,4.65
2022-12-13T13:24:24.762Z,4.72
2022-12-13T13:26:55.290Z,5.13
2022-12-13T13:29:38.888Z,5.08
2022-12-13T13:32:32.228Z,4.66
2022-12-13T13:35:50.968Z,4.83
2022-12-13T13:38:55.159Z,4.89
2022-12-13T13:41:56.002Z,4.55
2022-12-13T13:44:51.852Z,4.68
2022-12-13T13:47:48.843Z,4.32
2022-12-13T13:51:08.656Z,4.11
2022-12-13T13:54:03.028Z,4.11
2022-12-13T13:56:56.971Z,3.76
2022-12-13T14:00:15.002Z,3.78
2022-12-13T14:03:33.145Z,4.12
2022-12-13T14:06:35.936Z,3.73
2022-12-13T14:09:22.851Z,3.81
2022-12-13T14:12:33.098Z,3.84
2022-12-13T14:15:40.407Z,3.65
2022-12-13T14:18:43.761Z,3.84
2022-12-13T14:21:20.516Z,4.12
2022-12-13T14:24:00.158Z,3.89
2022-12-13T14:27:01.872Z,3.86
2022-12-13T14:29:34.899Z,4.02
2022-12-13T14:32:03.202Z,4.40
2022-12-13T14:34:32.592Z,3.99
2022-12-13T14:37:02.556Z,3.97
2022-12-13T14:39:31.324Z,4.06
2022-12-13T14:42:01.387Z,4.27
2022-12-13T14:44:32.297Z,4.21
2022-12-13T14:47:02.177Z,4.30
2022-12-13T14:49:32.330Z,4.35
2022-12-13T14:52:03.959Z,4.35
2022-12-13T14:54:41.043Z,4.18
2022-12-13T14:57:18.263Z,4.11
2022-12-13T14:59:50.413Z,4.04
2022-12-13T15:02:30.307Z,4.54
2022-12-13T15:05:00.759Z,4.47
2022-12-13T15:07:32.506Z,3.95
2022-12-13T15:10:04.231Z,3.93
2022-12-13T15:12:32.654Z,3.73
2022-12-13T15:15:04.112Z,3.97
2022-12-13T15:17:35.191Z,3.99
2022-12-13T15:20:21.659Z,4.19
2022-12-13T15:23:00.251Z,4.15
2022-12-13T15:25:28.281Z,3.99
2022-12-13T15:27:57.000Z,4.05
2022-12-13T15:30:30.762Z,3.92
2022-12-13T15:33:07.783Z,3.98
2022-12-13T15:35:38.417Z,3.80
2022-12-13T15:38:06.435Z,3.67
2022-12-13T15:40:35.018Z,3.71
2022-12-13T15:43:02.905Z,3.64
2022-12-13T15:45:36.958Z,3.69
2022-12-13T15:48:05.752Z,3.45
2022-12-13T15:50:36.097Z,3.24
2022-12-13T15:53:06.350Z,3.47
2022-12-13T15:55:36.621Z,3.30
2022-12-13T15:58:04.992Z,3.18
2022-12-13T16:00:36.309Z,3.27
2022-12-13T16:03:10.003Z,3.13
2022-12-13T16:05:40.249Z,3.46
2022-12-13T16:08:20.110Z,3.17
2022-12-13T16:10:49.013Z,3.20
2022-12-13T16:13:26.174Z,3.11
2022-12-13T16:16:00.221Z,2.83
2022-12-13T16:18:44.643Z,3.01
2022-12-13T16:21:12.542Z,3.24
2022-12-13T16:23:40.322Z,3.06
2022-12-13T16:26:23.215Z,3.03
2022-12-13T16:28:51.095Z,2.90
2022-12-13T16:31:24.241Z,2.77
2022-12-13T16:33:52.597Z,2.98
2022-12-13T16:36:22.915Z,2.97
2022-12-13T16:38:51.386Z,2.90
2022-12-13T16:41:19.323Z,3.05
2022-12-13T16:43:53.671Z,3.13
2022-12-13T16:47:16.910Z,2.91
2022-12-13T16:49:21.117Z,2.71
2022-12-13T16:51:49.634Z,2.82
2022-12-13T16:54:18.724Z,2.79
2022-12-13T16:56:46.510Z,2.85
2022-12-13T16:59:15.677Z,2.73
2022-12-13T17:01:45.651Z,2.63
2022-12-13T17:04:19.557Z,2.75
2022-12-13T17:06:48.969Z,2.48
2022-12-13T17:09:17.108Z,2.46
2022-12-13T17:11:44.835Z,2.62
2022-12-13T17:14:12.688Z,2.73
2022-12-13T17:16:40.476Z,2.95
2022-12-13T17:19:10.910Z,2.95
2022-12-13T17:21:38.720Z,2.88
2022-12-13T17:24:08.063Z,2.85
2022-12-13T17:26:36.275Z,2.80
2022-12-13T17:29:04.511Z,2.83
2022-12-13T17:31:35.853Z,2.68
2022-12-13T17:34:04.353Z,2.69
2022-12-13T17:36:33.504Z,2.66
2022-12-13T17:39:01.876Z,2.66
2022-12-13T17:41:29.803Z,2.53
2022-12-13T17:44:00.722Z,2.60
2022-12-13T17:46:28.516Z,2.45
2022-12-13T17:48:56.353Z,2.57
2022-12-13T17:51:24.295Z,2.73
2022-12-13T17:53:53.809Z,3.01
2022-12-13T17:56:22.003Z,2.90
2022-12-13T17:58:50.185Z,2.73
2022-12-13T18:01:20.438Z,2.85
2022-12-13T18:03:49.083Z,2.90
2022-12-13T18:06:17.341Z,2.86
2022-12-13T18:08:46.769Z,3.19
2022-12-13T18:11:33.069Z,3.16
2022-12-13T18:14:02.403Z,2.84
2022-12-13T18:16:36.226Z,2.71
2022-12-13T18:19:07.049Z,2.76
2022-12-13T18:21:35.686Z,2.97
2022-12-13T18:24:03.646Z,2.89
2022-12-13T18:26:32.971Z,3.01
2022-12-13T18:29:00.853Z,3.10
2022-12-13T18:31:28.733Z,3.21
2022-12-13T18:33:56.783Z,3.39
2022-12-13T18:36:26.456Z,3.03
2022-12-13T18:38:54.617Z,2.83
2022-12-13T18:41:24.716Z,2.93
2022-12-13T18:43:59.585Z,2.99
2022-12-13T18:46:28.769Z,2.89
2022-12-13T18:48:57.865Z,2.98
2022-12-13T18:51:26.164Z,3.00
2022-12-13T18:53:54.969Z,3.10
2022-12-13T18:56:23.300Z,2.99
2022-12-13T18:58:52.370Z,2.89
2022-12-13T19:01:22.815Z,2.87
2022-12-13T19:03:52.266Z,3.11
2022-12-13T19:06:22.270Z,2.96
2022-12-13T19:08:51.337Z,2.84
2022-12-13T19:11:19.948Z,3.03
2022-12-13T19:13:48.352Z,3.00
2022-12-13T19:16:18.855Z,2.81
2022-12-13T19:18:48.439Z,2.61
2022-12-13T19:21:18.776Z,2.83
2022-12-13T19:23:53.261Z,2.84
2022-12-13T19:26:23.547Z,2.68
2022-12-13T19:28:51.513Z,3.03
2022-12-13T19:31:19.379Z,2.78
2022-12-13T19:33:48.963Z,2.86
2022-12-13T19:36:16.889Z,2.87
2022-12-13T19:38:44.917Z,2.90
2022-12-13T19:41:15.148Z,2.66
2022-12-13T19:43:46.565Z,2.57
2022-12-13T19:46:20.471Z,2.78
2022-12-13T19:48:49.676Z,2.92
2022-12-13T19:51:17.830Z,2.87
2022-12-13T19:53:45.677Z,2.90
2022-12-13T19:56:17.473Z,2.89
2022-12-13T19:58:45.845Z,3.28
2022-12-13T20:01:14.141Z,2.69
2022-12-13T20:03:43.661Z,2.67
2022-12-13T20:06:15.975Z,2.71
2022-12-13T20:08:43.938Z,2.60
2022-12-13T20:11:14.223Z,2.66
2022-12-13T20:13:42.549Z,2.73
2022-12-13T20:16:16.139Z,2.97
2022-12-13T20:18:44.039Z,3.08
2022-12-13T20:21:14.803Z,2.86
2022-12-13T20:23:48.967Z,2.61
2022-12-13T20:26:19.140Z,3.01
2022-12-13T20:28:47.330Z,2.87
2022-12-13T20:31:16.531Z,3.33
2022-12-13T20:33:44.275Z,3.07
2022-12-13T20:36:25.063Z,3.33
2022-12-13T20:38:53.336Z,3.08
2022-12-13T20:41:21.166Z,3.10
2022-12-13T20:43:52.576Z,3.21
2022-12-13T20:46:20.970Z,3.15
2022-12-13T20:48:49.926Z,2.97
2022-12-13T20:51:20.629Z,3.09
2022-12-13T20:53:49.893Z,3.31
2022-12-13T20:56:20.364Z,2.79
2022-12-13T20:58:48.397Z,2.60
2022-12-13T21:01:17.978Z,2.64
2022-12-13T21:03:46.635Z,2.77
2022-12-13T21:06:14.722Z,2.44
2022-12-13T21:08:52.888Z,2.43
2022-12-13T21:11:27.823Z,2.36
2022-12-13T21:14:05.645Z,2.16
2022-12-13T21:16:38.806Z,2.16
2022-12-13T21:19:07.700Z,2.26
2022-12-13T21:21:35.924Z,2.52
2022-12-13T21:24:05.981Z,2.80
2022-12-13T21:26:36.094Z,2.70
2022-12-13T21:29:07.231Z,2.68
2022-12-13T21:31:35.700Z,2.60
2022-12-13T21:34:05.186Z,2.53
2022-12-13T21:36:34.470Z,2.17
2022-12-13T21:39:05.174Z,1.91
2022-12-13T21:41:34.680Z,2.01
2022-12-13T21:44:02.575Z,2.46
2022-12-13T21:47:02.925Z,2.58
2022-12-13T21:49:18.686Z,2.32
2022-12-13T21:51:48.337Z,2.40
2022-12-13T21:54:16.890Z,2.33
2022-12-13T21:57:03.251Z,2.44
2022-12-13T21:59:31.699Z,2.19
2022-12-13T22:02:14.756Z,2.41
2022-12-13T22:04:44.635Z,2.39
2022-12-13T22:07:14.283Z,2.40
2022-12-13T22:09:42.282Z,2.49
2022-12-13T22:12:18.991Z,2.85
2022-12-13T22:14:47.372Z,2.43
2022-12-13T22:17:15.683Z,2.21
2022-12-13T22:19:43.544Z,2.34
2022-12-13T22:22:16.819Z,2.02
2022-12-13T22:24:49.901Z,1.96
2022-12-13T22:27:24.072Z,2.32
2022-12-13T22:29:52.577Z,2.56
2022-12-13T22:32:20.545Z,2.28
2022-12-13T22:34:48.423Z,2.07
2022-12-13T22:37:16.605Z,2.34
2022-12-13T22:39:44.476Z,2.28
2022-12-13T22:42:12.393Z,2.37
2022-12-13T22:44:41.582Z,2.29
2022-12-13T22:47:09.377Z,2.66
2022-12-13T22:49:37.150Z,2.51
2022-12-13T22:52:05.234Z,2.76
2022-12-13T22:54:33.101Z,2.60
2022-12-13T22:57:00.840Z,2.70
2022-12-13T22:59:28.684Z,2.86
2022-12-13T23:02:02.644Z,2.78
2022-12-13T23:04:31.718Z,2.32
2022-12-13T23:06:59.606Z,2.36
2022-12-13T23:09:27.432Z,2.56
2022-12-13T23:12:12.599Z,2.22
2022-12-13T23:14:40.459Z,2.28
2022-12-13T23:17:09.622Z,2.50
2022-12-13T23:19:48.842Z,2.40
2022-12-13T23:22:17.056Z,2.38
2022-12-13T23:24:44.812Z,2.45
2022-12-13T23:27:12.544Z,2.54
2022-12-13T23:29:40.460Z,2.38
2022-12-13T23:32:09.714Z,2.36
2022-12-13T23:34:37.632Z,2.33
2022-12-13T23:37:05.359Z,2.40
2022-12-13T23:39:33.245Z,2.48
2022-12-13T23:42:00.993Z,2.43
2022-12-13T23:44:28.747Z,2.27
2022-12-13T23:46:56.468Z,2.22
2022-12-13T23:49:25.720Z,2.21
2022-12-13T23:51:54.159Z,2.36
2022-12-13T23:54:21.913Z,2.25
2022-12-13T23:56:49.648Z,2.44
2022-12-13T23:59:17.979Z,2.51
